Time;durP1;ratioP1;P1;durP2;ratioP2;P2;SDS_P1;SDS_P2;PMS_P1;PMS_P2;Temp;Humidity;BMP_temperature;BMP_pressure;BME280_temperature;BME280_humidity;BME280_pressure;Samples;Min_cycle;Max_cycle;Signal;HPM_P1;HPM_P2
2022/01/04 00:02:21;;;;;;;5.60;2.17;;;;;;;9.14;100.00;97903.22;4972249;28;20191;-86
2022/01/04 00:04:51;;;;;;;6.03;1.83;;;;;;;9.22;100.00;97910.56;4970644;28;20239;-82
2022/01/04 00:07:21;;;;;;;4.07;2.10;;;;;;;-144.59;100.00;127994.97;4973940;28;20253;-82
2022/01/04 00:09:51;;;;;;;4.87;2.70;;;;;;;8.85;100.00;97904.66;5005776;28;20244;-85
2022/01/04 00:15:10;;;;;;;6.13;3.33;;;;;;;8.65;100.00;97903.56;5016539;28;20191;-85
2022/01/04 00:17:40;;;;;;;7.60;3.40;;;;;;;8.75;100.00;97901.06;5019423;28;20218;-85
2022/01/04 00:20:11;;;;;;;7.47;3.87;;;;;;;8.72;100.00;97891.56;5019281;28;20751;-85
2022/01/04 00:22:39;;;;;;;7.03;3.27;;;;;;;8.72;100.00;97891.56;5010990;28;20234;-85
2022/01/04 00:25:10;;;;;;;5.97;3.60;;;;;;;8.72;100.00;97891.56;5015768;28;20195;-85
2022/01/04 00:27:38;;;;;;;6.50;3.50;;;;;;;9.08;100.00;97882.59;5014255;28;20203;-85
2022/01/04 00:30:07;;;;;;;5.33;3.97;;;;;;;8.98;100.00;97880.81;5010874;28;20194;-85
2022/01/04 00:32:36;;;;;;;7.87;4.17;;;;;;;-144.59;100.00;82584.31;5011960;28;20249;-85
2022/01/04 00:35:06;;;;;;;6.60;4.63;;;;;;;9.04;100.00;97862.66;5018348;28;20241;-83
2022/01/04 00:37:35;;;;;;;10.17;5.17;;;;;;;8.84;100.00;97860.75;5013992;28;20222;-82
2022/01/04 00:40:09;;;;;;;7.07;4.60;;;;;;;-86.04;0.00;-17631.97;5016571;28;20201;-83
2022/01/04 00:42:39;;;;;;;8.73;5.03;;;;;;;8.94;100.00;97845.03;5017351;28;20202;-83
2022/01/04 00:45:11;;;;;;;8.10;5.00;;;;;;;8.88;100.00;97843.72;5014433;28;20206;-82
2022/01/04 00:47:46;;;;;;;8.10;4.73;;;;;;;9.02;100.00;97832.06;5011792;28;20194;-83
2022/01/04 00:50:15;;;;;;;9.60;5.13;;;;;;;8.91;100.00;97826.78;5015002;28;20240;-83
2022/01/04 00:52:43;;;;;;;8.30;5.50;;;;;;;8.91;100.00;82560.84;5012401;28;20209;-83
2022/01/04 00:55:12;;;;;;;10.03;5.70;;;;;;;8.81;100.00;97824.88;5010382;28;20195;-84
2022/01/04 00:57:41;;;;;;;9.43;5.40;;;;;;;8.57;100.00;97818.84;5012284;28;20230;-82
2022/01/04 01:00:14;;;;;;;8.87;4.83;;;;;;;8.57;100.00;-17300.31;5011546;28;20240;-83
2022/01/04 01:02:46;;;;;;;7.20;4.77;;;;;;;8.51;100.00;97817.53;5015822;28;20206;-83
2022/01/04 01:05:18;;;;;;;8.17;4.77;;;;;;;8.58;100.00;97804.69;5010469;28;20277;-83
2022/01/04 01:07:46;;;;;;;6.57;4.27;;;;;;;8.63;100.00;97796.44;5011400;28;20288;-83
2022/01/04 01:10:34;;;;;;;8.93;3.70;;;;;;;8.63;100.00;97796.44;5008220;28;20206;-85
2022/01/04 01:13:03;;;;;;;5.43;3.73;;;;;;;8.48;100.00;97780.81;5009779;28;20191;-86
2022/01/04 01:15:34;;;;;;;5.80;3.83;;;;;;;8.41;100.00;97774.34;5008034;28;20253;-85
2022/01/04 01:18:03;;;;;;;7.67;3.63;;;;;;;8.38;100.00;97769.28;5010942;28;20225;-85
2022/01/04 01:20:35;;;;;;;5.60;3.10;;;;;;;8.52;100.00;97773.53;5012094;28;20653;-85
2022/01/04 01:23:04;;;;;;;7.67;3.57;;;;;;;8.46;100.00;97761.63;5004739;28;20206;-84
2022/01/04 01:25:35;;;;;;;6.10;2.93;;;;;;;8.54;100.00;97756.59;5008582;28;20202;-84
2022/01/04 01:28:05;;;;;;;5.50;2.80;;;;;;;8.60;100.00;97756.13;5010655;28;20203;-84
2022/01/04 01:30:36;;;;;;;8.03;2.60;;;;;;;8.70;100.00;97742.22;4955197;28;20196;-84
2022/01/04 01:33:05;;;;;;;4.70;2.70;;;;;;;8.72;100.00;97732.38;4950621;28;20204;-83
2022/01/04 01:35:37;;;;;;;3.50;2.30;;;;;;;8.86;100.00;97729.44;4952721;28;20234;-84
2022/01/04 01:38:08;;;;;;;5.30;2.30;;;;;;;8.79;100.00;97723.84;4951010;28;20220;-84
2022/01/04 01:40:37;;;;;;;4.50;2.20;;;;;;;8.89;100.00;97727.44;4952363;28;20199;-84
2022/01/04 01:43:06;;;;;;;4.77;2.30;;;;;;;8.80;100.00;97716.75;4958573;28;20264;-84
2022/01/04 01:45:34;;;;;;;3.17;1.80;;;;;;;-144.59;100.00;56477.69;4962282;29;20232;-85
2022/01/04 01:48:03;;;;;;;5.43;2.90;;;;;;;8.73;100.00;97718.19;4966730;28;20202;-85
2022/01/04 01:50:32;;;;;;;4.93;3.20;;;;;;;8.83;100.00;97712.06;5011301;28;20205;-85
2022/01/04 01:53:03;;;;;;;3.87;2.30;;;;;;;-144.59;100.00;63158.50;5011396;28;20244;-84
2022/01/04 01:55:31;;;;;;;3.87;2.20;;;;;;;8.80;100.00;97698.28;5013109;28;20206;-84
2022/01/04 01:58:00;;;;;;;6.73;3.60;;;;;;;8.93;100.00;97696.31;5010973;28;20677;-84
2022/01/04 02:00:29;;;;;;;5.43;2.70;;;;;;;8.88;100.00;97680.03;5009996;28;20194;-85
2022/01/04 02:02:59;;;;;;;7.30;4.70;;;;;;;8.85;100.00;97673.16;5012837;28;20233;-84
2022/01/04 02:05:29;;;;;;;4.97;2.60;;;;;;;8.89;100.00;97676.44;5011916;28;20241;-84
2022/01/04 02:08:00;;;;;;;3.20;1.70;;;;;;;9.01;100.00;97658.75;5014830;28;20646;-83
2022/01/04 02:10:35;;;;;;;2.60;1.50;;;;;;;9.02;100.00;97645.41;5006956;28;20210;-85
2022/01/04 02:13:03;;;;;;;5.67;2.83;;;;;;;8.96;100.00;97639.78;5009791;28;20205;-84
2022/01/04 02:15:33;;;;;;;5.23;3.00;;;;;;;8.96;100.00;97637.97;5013692;28;20202;-84
2022/01/04 02:18:02;;;;;;;7.70;3.33;;;;;;;8.96;100.00;97637.97;5004300;28;20225;-84
2022/01/04 02:20:31;;;;;;;7.00;3.70;;;;;;;8.95;100.00;97638.09;5009107;28;20202;-85
2022/01/04 02:22:59;;;;;;;7.67;3.90;;;;;;;8.95;100.00;97638.09;5009337;28;20340;-84
2022/01/04 02:25:28;;;;;;;6.17;4.27;;;;;;;8.99;100.00;97629.81;5010999;28;20202;-82
2022/01/04 02:27:57;;;;;;;4.53;3.50;;;;;;;8.85;100.00;97627.47;5012641;28;20190;-82
2022/01/04 02:30:25;;;;;;;7.03;4.07;;;;;;;8.85;100.00;97627.47;5018537;28;20199;-82
2022/01/04 02:32:54;;;;;;;3.43;2.77;;;;;;;-144.59;100.00;97617.25;5015148;28;20198;-82
2022/01/04 02:35:26;;;;;;;5.00;3.40;;;;;;;-144.59;100.00;97617.25;5017743;28;20646;-83
2022/01/04 02:37:58;;;;;;;4.03;2.53;;;;;;;8.98;100.00;97607.03;5019248;28;20214;-82
2022/01/04 02:40:27;;;;;;;8.00;3.63;;;;;;;50.71;100.00;97607.03;5019127;28;20202;-82
2022/01/04 02:42:56;;;;;;;4.43;2.80;;;;;;;8.84;100.00;97587.03;5013872;28;20221;-83
2022/01/04 02:45:25;;;;;;;3.50;2.70;;;;;;;8.84;100.00;97587.03;5013064;28;20210;-83
2022/01/04 02:47:54;;;;;;;3.23;2.60;;;;;;;8.77;100.00;97582.38;5011288;28;20201;-83
2022/01/04 02:50:22;;;;;;;5.23;3.27;;;;;;;8.83;100.00;97576.59;5017287;28;20283;-82
2022/01/04 02:52:51;;;;;;;3.50;2.30;;;;;;;8.92;100.00;97569.72;5004963;28;20260;-83
2022/01/04 02:55:22;;;;;;;3.27;2.40;;;;;;;8.92;100.00;97569.59;5007617;28;20202;-83
2022/01/04 02:57:50;;;;;;;2.93;2.00;;;;;;;8.90;100.00;97567.22;5013812;28;20211;-82
2022/01/04 03:00:19;;;;;;;4.70;2.17;;;;;;;8.85;100.00;97567.56;5012367;28;20198;-81
2022/01/04 03:02:48;;;;;;;5.80;2.20;;;;;;;8.84;100.00;97559.78;4978498;28;20244;-83
2022/01/04 03:05:16;;;;;;;3.00;2.07;;;;;;;8.84;100.00;97559.78;5012078;28;20191;-84
2022/01/04 03:07:45;;;;;;;3.60;2.43;;;;;;;8.88;100.00;97561.22;5013058;28;20202;-83
2022/01/04 03:10:14;;;;;;;5.10;3.00;;;;;;;8.87;100.00;97555.06;5013838;28;20221;-83
2022/01/04 03:12:44;;;;;;;5.07;4.17;;;;;;;8.88;100.00;97556.78;5012570;28;20229;-83
2022/01/04 03:15:14;;;;;;;5.07;4.07;;;;;;;8.85;100.00;97556.19;5009691;28;20229;-83
2022/01/04 03:17:42;;;;;;;5.80;4.40;;;;;;;8.82;100.00;97546.72;5011488;28;20248;-83
2022/01/04 03:20:14;;;;;;;5.87;4.10;;;;;;;8.83;100.00;97535.19;5018636;28;20221;-83
2022/01/04 03:22:42;;;;;;;5.50;3.97;;;;;;;8.80;100.00;97532.81;5016744;28;20222;-84
2022/01/04 03:25:11;;;;;;;4.97;3.10;;;;;;;8.80;100.00;97532.81;5015472;28;20197;-83
2022/01/04 03:27:40;;;;;;;3.23;2.87;;;;;;;8.63;100.00;97529.88;5020416;28;20201;-83
2022/01/04 03:30:11;;;;;;;4.33;2.80;;;;;;;8.70;100.00;97529.25;5005924;28;20245;-83
2022/01/04 03:32:41;;;;;;;4.20;2.47;;;;;;;8.86;100.00;97519.09;5015324;28;20194;-83
2022/01/04 03:35:12;;;;;;;3.13;2.47;;;;;;;8.86;100.00;97527.00;5013403;28;20194;-83
2022/01/04 03:37:41;;;;;;;3.73;2.00;;;;;;;8.89;100.00;97523.31;5012909;28;20650;-82
2022/01/04 03:40:10;;;;;;;2.97;2.30;;;;;;;8.84;100.00;97517.56;5007314;28;20214;-83
2022/01/04 03:42:39;;;;;;;2.77;2.13;;;;;;;8.80;100.00;97502.94;5007150;28;20212;-83
2022/01/04 03:45:10;;;;;;;3.50;2.40;;;;;;;8.73;100.00;97510.53;5009845;28;20206;-83
2022/01/04 03:47:44;;;;;;;2.47;1.90;;;;;;;8.65;100.00;97506.84;5012205;28;20205;-83
2022/01/04 03:50:13;;;;;;;2.03;1.70;;;;;;;8.46;100.00;97496.97;5004240;28;20202;-84
2022/01/04 03:52:43;;;;;;;2.83;1.70;;;;;;;8.61;100.00;97493.06;5013009;28;20206;-83
2022/01/04 03:55:11;;;;;;;4.00;1.60;;;;;;;8.48;100.00;97474.75;5008392;28;20206;-82
2022/01/04 03:57:39;;;;;;;1.70;1.50;;;;;;;8.55;100.00;97477.75;5011164;28;20666;-83
2022/01/04 04:00:12;;;;;;;1.83;1.43;;;;;;;8.60;100.00;97457.94;5016171;28;20219;-82
2022/01/04 04:02:41;;;;;;;2.13;1.63;;;;;;;8.62;100.00;97462.25;5011989;28;20190;-82
2022/01/04 04:05:10;;;;;;;2.40;1.30;;;;;;;8.67;100.00;97452.97;4978769;28;20213;-83
2022/01/04 04:07:38;;;;;;;2.33;1.50;;;;;;;8.66;100.00;97446.03;5010073;28;20661;-83
2022/01/04 04:10:07;;;;;;;2.00;1.23;;;;;;;8.65;100.00;97446.97;5013167;28;20198;-83
2022/01/04 04:12:37;;;;;;;2.10;1.30;;;;;;;8.52;100.00;97439.25;5014558;28;20202;-83
2022/01/04 04:15:08;;;;;;;2.20;1.40;;;;;;;8.53;100.00;97415.53;5012989;28;20213;-82
2022/01/04 04:17:39;;;;;;;1.60;1.40;;;;;;;8.61;100.00;97419.19;5007939;28;20191;-83
2022/01/04 04:20:08;;;;;;;2.10;1.10;;;;;;;8.65;100.00;97417.13;5012237;28;20222;-83
2022/01/04 04:22:38;;;;;;;1.33;0.93;;;;;;;8.68;100.00;97401.84;5005741;28;20701;-82
2022/01/04 04:25:07;;;;;;;1.50;1.03;;;;;;;8.67;100.00;97397.53;5012271;28;20202;-83
2022/01/04 04:27:36;;;;;;;1.17;0.80;;;;;;;8.64;100.00;97397.81;5006413;28;20206;-82
2022/01/04 04:30:05;;;;;;;1.20;0.83;;;;;;;8.72;100.00;97397.16;5015408;28;20669;-82
2022/01/04 04:32:34;;;;;;;1.50;1.13;;;;;;;-144.59;100.00;97397.16;5007830;28;20206;-82
2022/01/04 04:35:06;;;;;;;1.67;1.20;;;;;;;8.82;100.00;97406.81;5009535;28;20202;-83
2022/01/04 04:37:34;;;;;;;2.83;2.10;;;;;;;8.69;100.00;97377.16;5012560;28;20194;-82
2022/01/04 04:40:03;;;;;;;2.40;2.00;;;;;;;8.68;100.00;97393.94;5008089;28;20222;-83
2022/01/04 04:42:31;;;;;;;2.87;2.17;;;;;;;8.63;100.00;97363.66;4921267;29;20236;-83
2022/01/04 04:45:00;;;;;;;4.13;1.83;;;;;;;8.63;100.00;97363.66;4950792;28;20197;-83
2022/01/04 04:47:29;;;;;;;3.13;2.37;;;;;;;8.58;100.00;97356.09;4950160;28;20201;-83
2022/01/04 04:49:57;;;;;;;4.00;2.63;;;;;;;8.68;100.00;97367.53;4951926;28;20260;-82
2022/01/04 04:52:27;;;;;;;4.60;2.60;;;;;;;8.58;100.00;97359.56;4951714;28;20193;-83
2022/01/04 04:54:56;;;;;;;3.27;2.97;;;;;;;8.54;100.00;97357.34;4954456;28;20200;-83
2022/01/04 04:57:24;;;;;;;5.40;3.10;;;;;;;8.53;100.00;97361.78;4943925;28;20267;-83
2022/01/04 04:59:52;;;;;;;10.17;3.30;;;;;;;8.50;100.00;97372.59;4951504;28;20220;-83
2022/01/04 05:02:20;;;;;;;5.17;3.63;;;;;;;8.44;100.00;97351.16;4954000;29;20263;-82
2022/01/04 05:04:48;;;;;;;4.03;3.40;;;;;;;8.47;100.00;97340.34;4954038;28;20204;-82
2022/01/04 05:07:16;;;;;;;6.33;5.30;;;;;;;8.48;100.00;97345.50;4981140;28;20241;-82
2022/01/04 05:09:46;;;;;;;6.47;4.37;;;;;;;8.53;100.00;97358.31;5011362;28;20195;-83
2022/01/04 05:12:15;;;;;;;6.77;4.70;;;;;;;8.53;100.00;97358.31;5012863;28;20249;-82
2022/01/04 05:14:46;;;;;;;8.63;5.17;;;;;;;-144.59;100.00;97354.91;5011685;28;20241;-83
2022/01/04 05:17:19;;;;;;;8.40;5.77;;;;;;;8.36;100.00;97328.06;5010501;28;20278;-84
2022/01/04 05:19:47;;;;;;;8.43;6.30;;;;;;;8.40;100.00;97341.84;5011348;28;20214;-84
2022/01/04 05:22:17;;;;;;;8.30;5.60;;;;;;;8.43;100.00;97328.41;4977668;28;20230;-84
2022/01/04 05:24:46;;;;;;;6.00;4.60;;;;;;;8.44;100.00;97320.34;5011428;28;20198;-84
2022/01/04 05:27:15;;;;;;;7.77;4.10;;;;;;;8.52;100.00;97327.63;5012942;28;20206;-83
2022/01/04 05:29:43;;;;;;;8.03;4.97;;;;;;;8.52;100.00;97324.97;5013946;28;20198;-83
2022/01/04 05:32:14;;;;;;;6.77;5.20;;;;;;;8.47;100.00;97322.72;5014007;28;20197;-83
2022/01/04 05:34:42;;;;;;;30.93;6.70;;;;;;;8.48;100.00;97326.19;5013951;28;20233;-82
2022/01/04 05:37:11;;;;;;;10.63;5.37;;;;;;;8.43;100.00;97323.13;5007654;28;20206;-83
2022/01/04 05:39:39;;;;;;;6.80;4.13;;;;;;;8.38;100.00;97320.84;5013816;28;20269;-82
2022/01/04 05:42:10;;;;;;;6.90;4.10;;;;;;;8.41;100.00;97320.63;5004091;28;20187;-84
2022/01/04 05:44:38;;;;;;;5.07;3.50;;;;;;;8.29;100.00;97311.06;5005133;28;20206;-85
2022/01/04 05:47:07;;;;;;;4.13;3.40;;;;;;;8.29;100.00;97311.06;5005928;28;20269;-83
2022/01/04 05:49:37;;;;;;;6.03;3.47;;;;;;;8.29;100.00;97303.97;5008776;28;20196;-81
2022/01/04 05:52:06;;;;;;;4.50;3.20;;;;;;;8.29;100.00;97303.97;5010777;28;20194;-82
2022/01/04 05:54:35;;;;;;;5.67;4.10;;;;;;;8.27;100.00;97287.44;5003417;28;20202;-83
2022/01/04 05:57:04;;;;;;;5.73;4.10;;;;;;;8.29;100.00;97301.34;5004402;28;20248;-82
2022/01/04 05:59:34;;;;;;;5.93;4.10;;;;;;;8.31;100.00;97291.53;4962907;28;20308;-83
2022/01/04 06:02:03;;;;;;;5.83;2.87;;;;;;;8.23;100.00;97298.41;5020214;28;20190;-82
2022/01/04 06:04:32;;;;;;;3.83;2.90;;;;;;;8.25;100.00;97299.94;5016454;28;20236;-83
2022/01/04 06:07:00;;;;;;;4.00;2.53;;;;;;;8.06;100.00;97284.00;5013069;28;20209;-82
2022/01/04 06:09:39;;;;;;;2.73;2.50;;;;;;;8.14;100.00;97289.47;5012378;28;20201;-82
2022/01/04 06:14:50;;;;;;;3.33;2.40;;;;;;;8.19;100.00;97278.50;5015225;28;20196;-85
2022/01/04 06:15:01;;;;;;;2.50;2.30;;;;;;;8.20;100.00;97275.78;5015609;28;20216;-82
2022/01/04 06:17:31;;;;;;;3.47;2.43;;;;;;;8.24;100.00;97277.16;5017350;28;20186;-82
2022/01/04 06:20:01;;;;;;;2.83;2.53;;;;;;;8.26;100.00;97288.41;5017358;28;20214;-82
2022/01/04 06:22:29;;;;;;;3.70;2.83;;;;;;;-144.59;100.00;-17293.03;5015883;28;20241;-83
2022/01/04 06:24:58;;;;;;;4.37;3.03;;;;;;;8.35;100.00;97280.72;5015609;28;20210;-83
2022/01/04 06:27:27;;;;;;;4.13;3.10;;;;;;;-144.59;100.00;97280.72;5015212;28;20201;-83
2022/01/04 06:29:55;;;;;;;3.60;3.20;;;;;;;8.31;100.00;97273.06;5016986;28;20202;-83
2022/01/04 06:32:25;;;;;;;4.20;3.80;;;;;;;8.36;100.00;97274.50;4935405;28;20208;-83
2022/01/04 06:34:54;;;;;;;4.40;3.60;;;;;;;8.36;100.00;97274.50;4936821;29;20232;-82
2022/01/04 06:37:22;;;;;;;4.63;3.60;;;;;;;8.26;100.00;97279.69;4938332;29;20205;-82
2022/01/04 06:39:51;;;;;;;5.43;3.70;;;;;;;8.29;100.00;97266.22;4899076;29;20230;-83
2022/01/04 06:42:20;;;;;;;4.37;3.97;;;;;;;8.30;100.00;97267.91;4898016;29;20201;-83
2022/01/04 06:44:49;;;;;;;6.27;4.33;;;;;;;8.35;100.00;97268.38;4897464;29;20197;-83
2022/01/04 06:47:18;;;;;;;5.53;4.73;;;;;;;8.35;100.00;97268.38;4847359;29;20204;-82
2022/01/04 06:49:49;;;;;;;6.57;5.33;;;;;;;8.37;100.00;97274.34;4842906;29;20203;-82
2022/01/04 06:52:22;;;;;;;5.90;5.30;;;;;;;8.31;100.00;97272.22;4844057;29;20211;-83
2022/01/04 06:54:50;;;;;;;6.03;5.43;;;;;;;8.25;100.00;97267.47;4843053;29;20204;-83
2022/01/04 06:57:23;;;;;;;6.80;5.30;;;;;;;8.25;100.00;97267.47;4878635;29;20324;-85
2022/01/04 06:59:51;;;;;;;6.60;5.07;;;;;;;8.25;100.00;97268.28;4894730;29;20281;-85
2022/01/04 07:02:20;;;;;;;6.07;5.47;;;;;;;8.22;100.00;97273.84;4902371;29;20206;-84
2022/01/04 07:04:50;;;;;;;6.13;5.53;;;;;;;8.22;100.00;97263.28;4932598;28;20260;-85
2022/01/04 07:07:19;;;;;;;6.13;5.40;;;;;;;8.15;100.00;97264.78;4952365;29;20198;-85
2022/01/04 07:09:47;;;;;;;7.67;5.37;;;;;;;8.26;100.00;97269.97;4953414;29;20204;-85
2022/01/04 07:12:17;;;;;;;5.20;4.40;;;;;;;8.18;100.00;97272.41;4987772;28;20194;-85
2022/01/04 07:14:45;;;;;;;6.60;4.83;;;;;;;8.19;100.00;97266.16;5011205;28;20221;-82
2022/01/04 07:17:13;;;;;;;6.60;5.13;;;;;;;8.19;100.00;97266.16;5011272;28;20193;-82
2022/01/04 07:19:42;;;;;;;5.87;5.07;;;;;;;8.23;100.00;97258.84;5016526;28;20210;-83
2022/01/04 07:22:13;;;;;;;6.67;5.30;;;;;;;8.20;100.00;97248.53;5011978;28;20284;-82
2022/01/04 07:24:41;;;;;;;6.50;5.33;;;;;;;8.24;100.00;97248.16;5011226;28;20201;-84
2022/01/04 07:27:09;;;;;;;6.63;5.23;;;;;;;8.27;100.00;97244.44;5011410;28;20190;-85
2022/01/04 07:29:38;;;;;;;6.63;5.43;;;;;;;8.27;100.00;97244.44;5014537;28;20197;-85
2022/01/04 07:32:07;;;;;;;6.73;4.90;;;;;;;8.21;100.00;97235.25;5008534;28;20591;-85
2022/01/04 07:34:35;;;;;;;6.10;4.10;;;;;;;8.24;100.00;97236.78;5010984;28;20253;-84
2022/01/04 07:37:04;;;;;;;4.43;3.63;;;;;;;8.24;100.00;97236.78;5013495;28;20195;-83
2022/01/04 07:39:36;;;;;;;3.70;3.07;;;;;;;8.19;100.00;97236.31;4969461;28;20203;-83
2022/01/04 07:42:05;;;;;;;5.53;4.17;;;;;;;8.11;100.00;97231.72;4913315;29;20272;-84
2022/01/04 07:44:35;;;;;;;5.67;4.50;;;;;;;8.07;100.00;97225.03;4916088;29;20208;-84
2022/01/04 07:47:08;;;;;;;5.17;4.10;;;;;;;8.17;100.00;97225.09;4917550;29;20281;-84
2022/01/04 07:49:38;;;;;;;3.20;2.70;;;;;;;8.18;100.00;97214.41;4913341;29;20269;-85
2022/01/04 07:52:06;;;;;;;3.37;2.60;;;;;;;7.88;100.00;97207.28;4907754;29;20213;-85
2022/01/04 07:54:36;;;;;;;3.53;2.37;;;;;;;8.07;100.00;97197.84;4918075;29;20208;-82
2022/01/04 07:57:06;;;;;;;3.43;2.27;;;;;;;7.92;100.00;97192.91;4918309;29;20209;-85
2022/01/04 07:59:35;;;;;;;2.40;2.10;;;;;;;7.79;100.00;97192.25;4918472;29;20654;-84
2022/01/04 08:02:06;;;;;;;2.70;1.70;;;;;;;7.89;100.00;97190.53;4915426;29;20253;-84
2022/01/04 08:04:35;;;;;;;2.30;1.30;;;;;;;7.88;100.00;97180.94;4927656;29;20203;-85
2022/01/04 08:07:04;;;;;;;2.17;1.40;;;;;;;7.88;100.00;97180.94;4979013;28;20191;-84
2022/01/04 08:09:32;;;;;;;1.60;1.10;;;;;;;7.89;100.00;97179.13;5010074;28;20207;-85
2022/01/04 08:12:04;;;;;;;1.47;1.27;;;;;;;7.98;100.00;97173.94;5014264;28;20230;-84
2022/01/04 08:14:32;;;;;;;2.10;1.47;;;;;;;7.98;100.00;97173.94;5009140;28;20194;-83
2022/01/04 08:17:05;;;;;;;2.00;1.50;;;;;;;8.13;100.00;97166.50;4971367;28;20655;-84
2022/01/04 08:19:33;;;;;;;1.60;1.30;;;;;;;8.13;100.00;97163.88;4972182;28;20202;-85
2022/01/04 08:22:04;;;;;;;2.73;1.43;;;;;;;-144.59;100.00;74417.06;4967196;28;20267;-84
2022/01/04 08:24:32;;;;;;;2.00;1.60;;;;;;;8.15;100.00;97166.38;4974976;28;20247;-84
2022/01/04 08:27:01;;;;;;;2.77;1.90;;;;;;;8.26;100.00;97159.19;4973637;28;20198;-84
2022/01/04 08:29:32;;;;;;;4.47;2.17;;;;;;;8.16;100.00;97158.34;4970592;28;20206;-84
2022/01/04 08:32:01;;;;;;;4.00;2.20;;;;;;;8.19;100.00;97167.78;4966121;28;20271;-84
2022/01/04 08:34:30;;;;;;;2.93;2.47;;;;;;;8.24;100.00;97168.22;4979090;28;20209;-84
2022/01/04 08:36:59;;;;;;;4.37;3.50;;;;;;;8.13;100.00;97170.97;5015237;28;20194;-85
2022/01/04 08:39:27;;;;;;;6.63;4.63;;;;;;;8.13;100.00;97170.97;5006406;28;20222;-85
2022/01/04 08:42:01;;;;;;;4.77;4.00;;;;;;;8.20;100.00;97162.38;5008338;28;20221;-84
2022/01/04 08:44:32;;;;;;;6.87;4.10;;;;;;;8.22;100.00;97168.34;5008596;28;20281;-85
2022/01/04 08:47:01;;;;;;;5.50;3.90;;;;;;;8.11;100.00;97167.63;5005812;28;20202;-85
2022/01/04 08:49:30;;;;;;;6.63;4.03;;;;;;;8.06;100.00;97168.00;5006061;28;20737;-82
2022/01/04 08:52:01;;;;;;;5.73;4.30;;;;;;;8.08;100.00;97167.88;5008329;28;20226;-85
2022/01/04 08:54:29;;;;;;;3.80;3.40;;;;;;;8.08;100.00;97167.88;5005427;28;20245;-85
2022/01/04 08:56:59;;;;;;;5.70;3.77;;;;;;;7.92;100.00;97165.72;5013349;28;20194;-85
2022/01/04 08:59:28;;;;;;;5.67;3.90;;;;;;;7.92;100.00;97165.72;5004313;28;20202;-85
2022/01/04 09:01:57;;;;;;;5.50;3.63;;;;;;;7.98;100.00;97166.00;5011286;28;20218;-85
2022/01/04 09:04:26;;;;;;;4.30;3.50;;;;;;;8.04;100.00;97159.41;5007543;28;20195;-85
2022/01/04 09:06:55;;;;;;;6.13;3.40;;;;;;;-144.59;100.00;97159.41;5007911;28;20198;-84
2022/01/04 09:09:23;;;;;;;3.63;3.03;;;;;;;7.99;100.00;97156.31;5006316;28;20197;-84
2022/01/04 09:11:52;;;;;;;4.33;3.00;;;;;;;-144.59;100.00;97156.31;5003510;28;20202;-85
2022/01/04 09:14:27;;;;;;;5.03;3.20;;;;;;;8.04;100.00;97159.41;5004581;28;20252;-85
2022/01/04 09:19:43;;;;;;;4.40;2.70;;;;;;;8.03;100.00;97157.72;5013929;28;20201;-85
2022/01/04 09:22:12;;;;;;;3.73;2.57;;;;;;;7.92;100.00;97161.28;5006794;28;20231;-85
2022/01/04 09:24:40;;;;;;;4.77;2.87;;;;;;;7.89;100.00;97163.31;5003500;28;20210;-85
2022/01/04 09:27:10;;;;;;;6.13;3.87;;;;;;;7.89;100.00;97147.69;5007806;28;20220;-85
2022/01/04 09:29:38;;;;;;;5.73;3.60;;;;;;;7.96;100.00;97172.41;5011432;28;20270;-85
2022/01/04 09:32:13;;;;;;;4.33;3.50;;;;;;;8.04;100.00;97169.94;5008556;28;20700;-85
2022/01/04 09:34:41;;;;;;;4.83;4.00;;;;;;;7.92;100.00;97171.84;5002423;28;20209;-85
2022/01/04 09:37:09;;;;;;;6.63;3.50;;;;;;;7.85;100.00;97168.03;5006625;28;20205;-85
2022/01/04 09:39:44;;;;;;;4.27;3.57;;;;;;;7.83;100.00;97162.06;5003443;28;20202;-85
2022/01/04 09:42:12;;;;;;;4.23;2.50;;;;;;;-144.59;100.00;125486.69;5004145;28;20214;-85
2022/01/04 09:44:40;;;;;;;3.03;2.27;;;;;;;7.75;100.00;97167.16;4952626;29;20204;-84
2022/01/04 09:47:10;;;;;;;2.90;2.00;;;;;;;7.75;100.00;97167.16;4957183;29;20188;-83
2022/01/04 09:49:39;;;;;;;2.67;1.70;;;;;;;7.69;100.00;97167.66;4954006;29;20200;-84
2022/01/04 09:52:09;;;;;;;3.73;1.90;;;;;;;7.69;100.00;97167.66;4952436;29;20204;-85
2022/01/04 09:54:40;;;;;;;3.40;1.80;;;;;;;7.71;100.00;97173.63;4953384;29;20192;-85
2022/01/04 09:57:08;;;;;;;2.57;1.87;;;;;;;7.82;100.00;97178.00;4946396;29;20211;-85
2022/01/04 09:59:39;;;;;;;2.60;1.77;;;;;;;7.81;100.00;97171.88;4949653;29;20385;-86
2022/01/04 10:02:30;;;;;;;3.10;1.70;;;;;;;7.81;100.00;97171.88;4961681;28;20210;-85
2022/01/04 10:05:13;;;;;;;4.17;1.80;;;;;;;7.81;100.00;97177.16;5008295;28;20198;-85
2022/01/04 10:07:42;;;;;;;3.63;1.70;;;;;;;7.75;100.00;97175.88;5008320;28;20194;-85
2022/01/04 10:10:11;;;;;;;2.10;1.90;;;;;;;7.64;100.00;97180.41;5009039;28;20198;-85
2022/01/04 10:12:52;;;;;;;2.53;1.83;;;;;;;7.71;100.00;97187.63;5005880;28;20198;-84
2022/01/04 10:15:34;;;;;;;3.00;1.80;;;;;;;7.79;100.00;97179.09;5011585;28;20249;-85
2022/01/04 10:18:21;;;;;;;2.43;2.00;;;;;;;7.67;100.00;97173.06;5008957;28;20264;-85
2022/01/04 10:21:12;;;;;;;2.80;1.33;;;;;;;7.72;100.00;97176.16;5004386;28;20258;-85
2022/01/04 10:23:47;;;;;;;2.40;1.17;;;;;;;7.71;100.00;97171.00;5011144;28;20257;-84
2022/01/04 10:26:16;;;;;;;1.80;1.30;;;;;;;7.71;100.00;97173.63;5015913;28;20185;-85
2022/01/04 10:28:47;;;;;;;2.50;1.00;;;;;;;7.71;100.00;97173.63;5011132;28;20206;-84
2022/01/04 10:31:17;;;;;;;1.73;1.00;;;;;;;7.61;100.00;97170.09;5010652;28;20210;-84
2022/01/04 10:33:52;;;;;;;2.20;0.90;;;;;;;7.62;100.00;97172.59;5002421;28;20207;-85
2022/01/04 10:36:21;;;;;;;1.23;1.10;;;;;;;7.63;100.00;97155.84;5007061;28;20206;-85
2022/01/04 10:38:51;;;;;;;1.80;1.00;;;;;;;7.60;100.00;97153.47;5003297;28;20198;-85
2022/01/04 10:41:23;;;;;;;1.47;1.10;;;;;;;7.70;100.00;97150.88;5006471;28;20214;-84
2022/01/04 10:43:54;;;;;;;1.10;0.87;;;;;;;7.67;100.00;97151.16;5003042;28;20270;-85
2022/01/04 10:46:32;;;;;;;1.50;1.07;;;;;;;7.67;100.00;97157.25;5012417;28;20202;-85
2022/01/04 10:49:15;;;;;;;0.90;0.80;;;;;;;7.67;100.00;97157.25;5010499;28;20646;-85
2022/01/04 10:51:45;;;;;;;0.80;0.70;;;;;;;7.67;100.00;97144.06;5014051;28;20194;-84
2022/01/04 10:54:19;;;;;;;1.70;0.80;;;;;;;7.67;100.00;97144.06;5007993;28;20257;-85
2022/01/04 10:56:47;;;;;;;0.90;0.70;;;;;;;7.63;100.00;97136.59;5009550;28;20260;-85
2022/01/04 10:59:17;;;;;;;1.70;1.00;;;;;;;7.68;100.00;97151.00;5012533;28;20195;-84
2022/01/04 11:01:50;;;;;;;1.10;1.00;;;;;;;7.76;100.00;97153.00;5007299;28;20203;-84
2022/01/04 11:04:27;;;;;;;1.30;1.10;;;;;;;7.76;100.00;97150.38;5009931;28;20194;-84
2022/01/04 11:07:01;;;;;;;1.00;0.90;;;;;;;7.74;100.00;97142.59;5015485;28;20205;-85
2022/01/04 11:09:30;;;;;;;1.27;0.90;;;;;;;-144.59;100.00;97142.59;5011072;28;20210;-85
2022/01/04 11:11:59;;;;;;;3.43;0.87;;;;;;;7.60;100.00;97148.19;5013076;28;20186;-84
2022/01/04 11:14:27;;;;;;;1.93;0.90;;;;;;;7.48;100.00;97143.97;5010486;28;20248;-84
2022/01/04 11:16:57;;;;;;;1.90;0.70;;;;;;;7.65;100.00;97142.53;5014980;28;20206;-85
2022/01/04 11:19:29;;;;;;;1.67;1.00;;;;;;;7.63;100.00;97155.84;5011374;28;20195;-85
2022/01/04 11:22:03;;;;;;;1.27;0.73;;;;;;;7.58;100.00;97146.66;5010981;28;20227;-84
2022/01/04 11:24:34;;;;;;;0.80;0.80;;;;;;;7.61;100.00;97149.84;5013672;28;20206;-84
2022/01/04 11:27:04;;;;;;;2.43;1.23;;;;;;;7.59;100.00;97146.53;5008730;28;20198;-84
2022/01/04 11:29:43;;;;;;;2.50;1.33;;;;;;;7.63;100.00;97141.84;5005751;28;20202;-84
2022/01/04 11:32:17;;;;;;;1.40;1.20;;;;;;;7.65;100.00;97139.91;5010919;28;20205;-84
2022/01/04 11:35:04;;;;;;;2.43;1.33;;;;;;;7.72;100.00;97160.34;5009275;28;20201;-83
2022/01/04 11:37:32;;;;;;;1.23;1.13;;;;;;;7.72;100.00;97152.44;5013589;28;20711;-83
2022/01/04 11:40:25;;;;;;;1.30;1.20;;;;;;;7.68;100.00;97161.56;5013121;28;20198;-84
2022/01/04 11:42:54;;;;;;;2.33;1.03;;;;;;;7.68;100.00;97161.56;5010837;28;20218;-84
2022/01/04 11:45:42;;;;;;;0.87;0.80;;;;;;;7.63;100.00;97161.13;5011327;28;20205;-84
2022/01/04 11:48:30;;;;;;;1.33;1.00;;;;;;;7.51;100.00;97167.41;5010971;28;20206;-84
2022/01/04 11:51:02;;;;;;;1.60;1.10;;;;;;;7.66;100.00;97160.84;4961049;28;20684;-84
2022/01/04 11:53:31;;;;;;;1.10;1.00;;;;;;;7.58;100.00;97158.03;5007164;28;20194;-84